sensor_id;sensor_type;location;lat;lon;timestamp;temperature;humidity
66608;DHT22;53462;39.616;8.824;2023-10-13T00:00:34;20.00;49.70
66608;DHT22;53462;39.616;8.824;2023-10-13T00:03:04;20.20;49.00
66608;DHT22;53462;39.616;8.824;2023-10-13T00:05:33;20.20;49.50
66608;DHT22;53462;39.616;8.824;2023-10-13T00:08:00;20.30;48.50
66608;DHT22;53462;39.616;8.824;2023-10-13T00:10:30;20.30;48.80
66608;DHT22;53462;39.616;8.824;2023-10-13T00:12:57;20.20;49.50
66608;DHT22;53462;39.616;8.824;2023-10-13T00:15:52;19.90;50.50
66608;DHT22;53462;39.616;8.824;2023-10-13T00:20:52;19.80;50.00
66608;DHT22;53462;39.616;8.824;2023-10-13T00:23:22;19.80;50.10
66608;DHT22;53462;39.616;8.824;2023-10-13T00:25:51;19.70;51.10
66608;DHT22;53462;39.616;8.824;2023-10-13T00:28:26;19.50;52.00
66608;DHT22;53462;39.616;8.824;2023-10-13T00:30:54;19.20;53.20
66608;DHT22;53462;39.616;8.824;2023-10-13T00:33:27;19.10;54.00
66608;DHT22;53462;39.616;8.824;2023-10-13T00:35:53;19.10;54.30
66608;DHT22;53462;39.616;8.824;2023-10-13T00:38:22;19.10;54.10
66608;DHT22;53462;39.616;8.824;2023-10-13T00:40:48;19.10;54.80
66608;DHT22;53462;39.616;8.824;2023-10-13T00:43:19;18.90;55.20
66608;DHT22;53462;39.616;8.824;2023-10-13T00:45:46;18.60;55.50
66608;DHT22;53462;39.616;8.824;2023-10-13T00:48:23;18.50;55.30
66608;DHT22;53462;39.616;8.824;2023-10-13T00:50:59;18.30;55.40
66608;DHT22;53462;39.616;8.824;2023-10-13T00:53:29;18.10;54.10
66608;DHT22;53462;39.616;8.824;2023-10-13T00:56:02;18.20;54.50
66608;DHT22;53462;39.616;8.824;2023-10-13T00:58:45;18.30;54.90
66608;DHT22;53462;39.616;8.824;2023-10-13T01:01:18;18.50;55.10
66608;DHT22;53462;39.616;8.824;2023-10-13T01:03:49;18.50;55.30
66608;DHT22;53462;39.616;8.824;2023-10-13T01:06:19;18.70;54.50
66608;DHT22;53462;39.616;8.824;2023-10-13T01:08:47;18.40;55.60
66608;DHT22;53462;39.616;8.824;2023-10-13T01:11:19;18.30;56.00
66608;DHT22;53462;39.616;8.824;2023-10-13T01:13:49;18.40;55.80
66608;DHT22;53462;39.616;8.824;2023-10-13T01:16:20;18.50;56.10
66608;DHT22;53462;39.616;8.824;2023-10-13T01:18:53;18.50;56.50
66608;DHT22;53462;39.616;8.824;2023-10-13T01:21:19;18.30;57.00
66608;DHT22;53462;39.616;8.824;2023-10-13T01:23:53;18.40;56.40
66608;DHT22;53462;39.616;8.824;2023-10-13T01:26:19;18.70;55.40
66608;DHT22;53462;39.616;8.824;2023-10-13T01:28:57;18.70;55.10
66608;DHT22;53462;39.616;8.824;2023-10-13T01:31:23;18.70;54.80
66608;DHT22;53462;39.616;8.824;2023-10-13T01:33:56;18.70;54.40
66608;DHT22;53462;39.616;8.824;2023-10-13T01:36:27;18.70;53.90
66608;DHT22;53462;39.616;8.824;2023-10-13T01:38:54;18.70;53.70
66608;DHT22;53462;39.616;8.824;2023-10-13T01:41:23;18.70;54.80
66608;DHT22;53462;39.616;8.824;2023-10-13T01:43:49;18.70;54.10
66608;DHT22;53462;39.616;8.824;2023-10-13T01:46:15;18.70;54.10
66608;DHT22;53462;39.616;8.824;2023-10-13T01:48:45;18.70;53.70
66608;DHT22;53462;39.616;8.824;2023-10-13T01:51:12;18.80;52.50
66608;DHT22;53462;39.616;8.824;2023-10-13T01:53:38;19.10;50.80
66608;DHT22;53462;39.616;8.824;2023-10-13T01:56:05;19.20;50.20
66608;DHT22;53462;39.616;8.824;2023-10-13T01:58:39;19.30;48.40
66608;DHT22;53462;39.616;8.824;2023-10-13T02:01:09;19.60;46.50
66608;DHT22;53462;39.616;8.824;2023-10-13T02:03:36;19.80;45.90
66608;DHT22;53462;39.616;8.824;2023-10-13T02:06:08;19.80;46.70
66608;DHT22;53462;39.616;8.824;2023-10-13T02:08:36;19.40;49.10
66608;DHT22;53462;39.616;8.824;2023-10-13T02:11:10;18.80;50.80
66608;DHT22;53462;39.616;8.824;2023-10-13T02:13:37;18.70;50.90
66608;DHT22;53462;39.616;8.824;2023-10-13T02:16:14;18.80;50.60
66608;DHT22;53462;39.616;8.824;2023-10-13T02:18:44;18.90;50.30
66608;DHT22;53462;39.616;8.824;2023-10-13T02:21:10;18.90;50.10
66608;DHT22;53462;39.616;8.824;2023-10-13T02:23:40;19.00;50.20
66608;DHT22;53462;39.616;8.824;2023-10-13T02:26:26;18.90;50.70
66608;DHT22;53462;39.616;8.824;2023-10-13T02:29:03;18.90;51.40
66608;DHT22;53462;39.616;8.824;2023-10-13T02:31:30;18.70;52.90
66608;DHT22;53462;39.616;8.824;2023-10-13T02:33:56;18.70;52.60
66608;DHT22;53462;39.616;8.824;2023-10-13T02:36:22;18.60;53.40
66608;DHT22;53462;39.616;8.824;2023-10-13T02:39:03;18.50;54.00
66608;DHT22;53462;39.616;8.824;2023-10-13T02:41:34;18.50;53.70
66608;DHT22;53462;39.616;8.824;2023-10-13T02:44:03;18.60;53.00
66608;DHT22;53462;39.616;8.824;2023-10-13T02:46:33;18.70;52.80
66608;DHT22;53462;39.616;8.824;2023-10-13T02:49:02;18.70;52.90
66608;DHT22;53462;39.616;8.824;2023-10-13T02:51:37;18.60;53.10
66608;DHT22;53462;39.616;8.824;2023-10-13T02:54:04;18.50;53.70
66608;DHT22;53462;39.616;8.824;2023-10-13T02:56:37;18.50;53.50
66608;DHT22;53462;39.616;8.824;2023-10-13T02:59:03;18.60;53.10
66608;DHT22;53462;39.616;8.824;2023-10-13T03:01:33;18.60;53.30
66608;DHT22;53462;39.616;8.824;2023-10-13T03:04:03;18.60;53.40
66608;DHT22;53462;39.616;8.824;2023-10-13T03:06:35;18.50;53.60
66608;DHT22;53462;39.616;8.824;2023-10-13T03:09:03;18.50;53.60
66608;DHT22;53462;39.616;8.824;2023-10-13T03:11:45;18.60;54.10
66608;DHT22;53462;39.616;8.824;2023-10-13T03:14:23;18.50;54.20
66608;DHT22;53462;39.616;8.824;2023-10-13T03:17:08;18.50;54.20
66608;DHT22;53462;39.616;8.824;2023-10-13T03:19:44;18.50;54.60
66608;DHT22;53462;39.616;8.824;2023-10-13T03:22:17;18.40;54.50
66608;DHT22;53462;39.616;8.824;2023-10-13T03:24:44;18.40;54.80
66608;DHT22;53462;39.616;8.824;2023-10-13T03:27:16;18.40;54.70
66608;DHT22;53462;39.616;8.824;2023-10-13T03:29:43;18.40;54.80
66608;DHT22;53462;39.616;8.824;2023-10-13T03:32:16;18.40;54.80
66608;DHT22;53462;39.616;8.824;2023-10-13T03:34:43;18.40;55.30
66608;DHT22;53462;39.616;8.824;2023-10-13T03:37:35;18.40;55.10
66608;DHT22;53462;39.616;8.824;2023-10-13T03:40:05;18.40;55.20
66608;DHT22;53462;39.616;8.824;2023-10-13T03:42:34;18.30;56.20
66608;DHT22;53462;39.616;8.824;2023-10-13T03:45:00;18.50;56.00
66608;DHT22;53462;39.616;8.824;2023-10-13T03:47:26;18.20;56.80
66608;DHT22;53462;39.616;8.824;2023-10-13T03:49:53;18.20;57.30
66608;DHT22;53462;39.616;8.824;2023-10-13T03:52:39;18.30;56.30
66608;DHT22;53462;39.616;8.824;2023-10-13T03:55:06;18.60;53.90
66608;DHT22;53462;39.616;8.824;2023-10-13T03:57:33;18.90;52.70
66608;DHT22;53462;39.616;8.824;2023-10-13T03:59:59;19.20;52.00
66608;DHT22;53462;39.616;8.824;2023-10-13T04:02:38;19.10;52.90
66608;DHT22;53462;39.616;8.824;2023-10-13T04:05:04;18.80;53.80
66608;DHT22;53462;39.616;8.824;2023-10-13T04:07:34;18.60;54.20
66608;DHT22;53462;39.616;8.824;2023-10-13T04:10:01;18.50;54.70
66608;DHT22;53462;39.616;8.824;2023-10-13T04:13:05;18.40;54.60
66608;DHT22;53462;39.616;8.824;2023-10-13T04:15:46;18.40;54.80
66608;DHT22;53462;39.616;8.824;2023-10-13T04:18:30;18.40;55.00
66608;DHT22;53462;39.616;8.824;2023-10-13T04:21:14;18.40;54.90
66608;DHT22;53462;39.616;8.824;2023-10-13T04:23:59;18.40;55.40
66608;DHT22;53462;39.616;8.824;2023-10-13T04:26:48;18.30;55.40
66608;DHT22;53462;39.616;8.824;2023-10-13T04:29:32;18.30;55.80
66608;DHT22;53462;39.616;8.824;2023-10-13T04:32:16;18.10;56.50
66608;DHT22;53462;39.616;8.824;2023-10-13T04:34:57;18.20;57.00
66608;DHT22;53462;39.616;8.824;2023-10-13T04:37:35;18.20;56.10
66608;DHT22;53462;39.616;8.824;2023-10-13T04:40:19;18.20;56.30
66608;DHT22;53462;39.616;8.824;2023-10-13T04:42:51;18.10;56.80
66608;DHT22;53462;39.616;8.824;2023-10-13T04:45:25;18.10;56.90
66608;DHT22;53462;39.616;8.824;2023-10-13T04:48:00;18.00;56.70
66608;DHT22;53462;39.616;8.824;2023-10-13T04:50:45;17.80;58.00
66608;DHT22;53462;39.616;8.824;2023-10-13T04:53:15;18.00;57.00
66608;DHT22;53462;39.616;8.824;2023-10-13T04:55:55;18.30;54.60
66608;DHT22;53462;39.616;8.824;2023-10-13T04:58:30;18.60;52.70
66608;DHT22;53462;39.616;8.824;2023-10-13T05:01:03;18.70;52.20
66608;DHT22;53462;39.616;8.824;2023-10-13T05:03:51;18.70;52.60
66608;DHT22;53462;39.616;8.824;2023-10-13T05:06:36;18.50;53.10
66608;DHT22;53462;39.616;8.824;2023-10-13T05:09:25;18.30;54.00
66608;DHT22;53462;39.616;8.824;2023-10-13T05:12:09;18.10;54.40
66608;DHT22;53462;39.616;8.824;2023-10-13T05:14:54;18.10;54.60
66608;DHT22;53462;39.616;8.824;2023-10-13T05:17:39;18.00;55.50
66608;DHT22;53462;39.616;8.824;2023-10-13T05:20:43;17.90;55.80
66608;DHT22;53462;39.616;8.824;2023-10-13T05:23:28;17.90;55.50
66608;DHT22;53462;39.616;8.824;2023-10-13T05:26:12;18.00;55.40
66608;DHT22;53462;39.616;8.824;2023-10-13T05:28:57;18.00;55.50
66608;DHT22;53462;39.616;8.824;2023-10-13T05:31:41;17.90;55.80
66608;DHT22;53462;39.616;8.824;2023-10-13T05:34:26;18.00;55.90
66608;DHT22;53462;39.616;8.824;2023-10-13T05:37:10;18.00;56.00
66608;DHT22;53462;39.616;8.824;2023-10-13T05:39:55;18.00;55.80
66608;DHT22;53462;39.616;8.824;2023-10-13T05:42:39;18.00;56.10
66608;DHT22;53462;39.616;8.824;2023-10-13T05:45:24;18.00;56.20
66608;DHT22;53462;39.616;8.824;2023-10-13T05:48:06;18.10;55.70
66608;DHT22;53462;39.616;8.824;2023-10-13T05:50:40;18.10;55.70
66608;DHT22;53462;39.616;8.824;2023-10-13T05:53:24;18.10;55.40
66608;DHT22;53462;39.616;8.824;2023-10-13T05:56:09;18.20;55.20
66608;DHT22;53462;39.616;8.824;2023-10-13T05:58:53;18.40;54.60
66608;DHT22;53462;39.616;8.824;2023-10-13T06:01:38;18.40;54.50
66608;DHT22;53462;39.616;8.824;2023-10-13T06:04:39;18.50;54.80
66608;DHT22;53462;39.616;8.824;2023-10-13T06:07:23;18.50;54.50
66608;DHT22;53462;39.616;8.824;2023-10-13T06:10:08;18.60;54.70
66608;DHT22;53462;39.616;8.824;2023-10-13T06:12:52;18.70;55.00
66608;DHT22;53462;39.616;8.824;2023-10-13T06:15:37;18.80;54.90
66608;DHT22;53462;39.616;8.824;2023-10-13T06:18:22;19.10;54.30
66608;DHT22;53462;39.616;8.824;2023-10-13T06:21:06;19.20;54.70
66608;DHT22;53462;39.616;8.824;2023-10-13T06:23:51;19.50;54.50
66608;DHT22;53462;39.616;8.824;2023-10-13T06:26:35;19.90;53.10
66608;DHT22;53462;39.616;8.824;2023-10-13T06:29:20;20.20;52.50
66608;DHT22;53462;39.616;8.824;2023-10-13T06:31:47;20.50;51.40
66608;DHT22;53462;39.616;8.824;2023-10-13T06:34:13;20.30;51.80
66608;DHT22;53462;39.616;8.824;2023-10-13T06:36:41;20.30;51.90
66608;DHT22;53462;39.616;8.824;2023-10-13T06:39:12;20.40;52.30
66608;DHT22;53462;39.616;8.824;2023-10-13T06:42:01;20.70;52.10
66608;DHT22;53462;39.616;8.824;2023-10-13T06:44:28;20.70;52.30
66608;DHT22;53462;39.616;8.824;2023-10-13T06:46:58;20.80;52.90
66608;DHT22;53462;39.616;8.824;2023-10-13T06:49:29;21.00;52.10
66608;DHT22;53462;39.616;8.824;2023-10-13T06:52:01;21.20;52.10
66608;DHT22;53462;39.616;8.824;2023-10-13T06:54:27;21.40;51.90
66608;DHT22;53462;39.616;8.824;2023-10-13T06:56:54;21.80;50.50
66608;DHT22;53462;39.616;8.824;2023-10-13T06:59:20;22.20;50.10
66608;DHT22;53462;39.616;8.824;2023-10-13T07:01:52;22.40;50.10
66608;DHT22;53462;39.616;8.824;2023-10-13T07:04:18;22.50;49.40
66608;DHT22;53462;39.616;8.824;2023-10-13T07:06:44;22.50;49.10
66608;DHT22;53462;39.616;8.824;2023-10-13T07:09:16;22.70;48.50
66608;DHT22;53462;39.616;8.824;2023-10-13T07:12:04;22.90;47.60
66608;DHT22;53462;39.616;8.824;2023-10-13T07:14:35;23.10;47.40
66608;DHT22;53462;39.616;8.824;2023-10-13T07:17:05;23.20;47.20
66608;DHT22;53462;39.616;8.824;2023-10-13T07:19:34;23.60;46.80
66608;DHT22;53462;39.616;8.824;2023-10-13T07:22:01;23.70;46.60
66608;DHT22;53462;39.616;8.824;2023-10-13T07:24:46;23.90;46.40
66608;DHT22;53462;39.616;8.824;2023-10-13T07:27:19;24.30;45.70
66608;DHT22;53462;39.616;8.824;2023-10-13T07:29:56;24.80;44.30
66608;DHT22;53462;39.616;8.824;2023-10-13T07:32:31;25.50;42.90
66608;DHT22;53462;39.616;8.824;2023-10-13T07:34:59;26.10;42.20
66608;DHT22;53462;39.616;8.824;2023-10-13T07:37:35;26.80;40.50
66608;DHT22;53462;39.616;8.824;2023-10-13T07:40:01;27.90;38.00
66608;DHT22;53462;39.616;8.824;2023-10-13T07:42:35;28.30;37.50
66608;DHT22;53462;39.616;8.824;2023-10-13T07:45:06;28.80;35.90
66608;DHT22;53462;39.616;8.824;2023-10-13T07:47:32;28.90;35.30
66608;DHT22;53462;39.616;8.824;2023-10-13T07:49:59;28.80;34.60
66608;DHT22;53462;39.616;8.824;2023-10-13T07:52:25;29.00;34.60
66608;DHT22;53462;39.616;8.824;2023-10-13T07:55:06;29.00;34.40
66608;DHT22;53462;39.616;8.824;2023-10-13T07:57:45;29.50;33.40
66608;DHT22;53462;39.616;8.824;2023-10-13T08:00:21;29.90;32.60
66608;DHT22;53462;39.616;8.824;2023-10-13T08:03:05;30.50;32.00
66608;DHT22;53462;39.616;8.824;2023-10-13T08:05:44;30.90;32.00
66608;DHT22;53462;39.616;8.824;2023-10-13T08:08:29;31.50;31.10
66608;DHT22;53462;39.616;8.824;2023-10-13T08:11:05;31.70;30.90
66608;DHT22;53462;39.616;8.824;2023-10-13T08:13:46;32.60;30.10
66608;DHT22;53462;39.616;8.824;2023-10-13T08:16:13;32.70;29.10
66608;DHT22;53462;39.616;8.824;2023-10-13T08:18:49;32.80;29.10
66608;DHT22;53462;39.616;8.824;2023-10-13T08:21:19;33.50;29.40
66608;DHT22;53462;39.616;8.824;2023-10-13T08:23:57;33.70;28.80
66608;DHT22;53462;39.616;8.824;2023-10-13T08:26:28;33.80;27.50
66608;DHT22;53462;39.616;8.824;2023-10-13T08:29:00;34.20;27.90
66608;DHT22;53462;39.616;8.824;2023-10-13T08:31:48;34.60;26.70
66608;DHT22;53462;39.616;8.824;2023-10-13T08:34:30;35.60;26.60
66608;DHT22;53462;39.616;8.824;2023-10-13T08:37:07;36.00;24.90
66608;DHT22;53462;39.616;8.824;2023-10-13T08:39:49;36.10;25.60
66608;DHT22;53462;39.616;8.824;2023-10-13T08:42:44;35.90;24.30
66608;DHT22;53462;39.616;8.824;2023-10-13T08:45:11;36.50;24.10
66608;DHT22;53462;39.616;8.824;2023-10-13T08:47:53;37.10;24.30
66608;DHT22;53462;39.616;8.824;2023-10-13T08:50:44;37.30;24.00
66608;DHT22;53462;39.616;8.824;2023-10-13T08:53:17;37.50;23.50
66608;DHT22;53462;39.616;8.824;2023-10-13T08:58:45;37.30;21.80
66608;DHT22;53462;39.616;8.824;2023-10-13T09:04:12;37.90;22.90
66608;DHT22;53462;39.616;8.824;2023-10-13T09:06:44;38.80;21.60
66608;DHT22;53462;39.616;8.824;2023-10-13T09:09:24;38.50;20.70
66608;DHT22;53462;39.616;8.824;2023-10-13T09:11:56;39.00;20.60
66608;DHT22;53462;39.616;8.824;2023-10-13T09:14:38;39.60;21.10
66608;DHT22;53462;39.616;8.824;2023-10-13T09:17:08;39.60;20.00
66608;DHT22;53462;39.616;8.824;2023-10-13T09:19:52;38.40;21.80
66608;DHT22;53462;39.616;8.824;2023-10-13T09:22:27;39.70;19.90
66608;DHT22;53462;39.616;8.824;2023-10-13T09:25:02;38.40;20.20
66608;DHT22;53462;39.616;8.824;2023-10-13T09:27:30;36.40;21.50
66608;DHT22;53462;39.616;8.824;2023-10-13T09:29:59;34.30;23.80
66608;DHT22;53462;39.616;8.824;2023-10-13T09:32:45;34.20;23.70
66608;DHT22;53462;39.616;8.824;2023-10-13T09:35:20;33.10;24.00
66608;DHT22;53462;39.616;8.824;2023-10-13T09:37:53;33.80;24.30
66608;DHT22;53462;39.616;8.824;2023-10-13T09:40:22;33.70;23.40
66608;DHT22;53462;39.616;8.824;2023-10-13T09:42:53;34.10;25.10
66608;DHT22;53462;39.616;8.824;2023-10-13T09:45:31;34.40;23.60
66608;DHT22;53462;39.616;8.824;2023-10-13T09:48:16;33.90;23.20
66608;DHT22;53462;39.616;8.824;2023-10-13T09:50:47;33.90;24.50
66608;DHT22;53462;39.616;8.824;2023-10-13T09:53:15;34.40;23.60
66608;DHT22;53462;39.616;8.824;2023-10-13T09:56:14;34.00;24.00
66608;DHT22;53462;39.616;8.824;2023-10-13T09:59:08;34.10;24.10
66608;DHT22;53462;39.616;8.824;2023-10-13T10:01:43;34.50;23.40
66608;DHT22;53462;39.616;8.824;2023-10-13T10:04:23;33.70;24.00
66608;DHT22;53462;39.616;8.824;2023-10-13T10:09:18;34.90;23.60
66608;DHT22;53462;39.616;8.824;2023-10-13T10:12:01;34.80;23.70
66608;DHT22;53462;39.616;8.824;2023-10-13T10:17:11;34.80;23.50
66608;DHT22;53462;39.616;8.824;2023-10-13T10:19:51;35.10;23.50
66608;DHT22;53462;39.616;8.824;2023-10-13T10:22:30;35.00;23.60
66608;DHT22;53462;39.616;8.824;2023-10-13T10:25:06;35.40;24.10
66608;DHT22;53462;39.616;8.824;2023-10-13T10:27:56;35.30;22.80
66608;DHT22;53462;39.616;8.824;2023-10-13T10:30:29;34.70;23.20
66608;DHT22;53462;39.616;8.824;2023-10-13T10:32:56;34.90;23.70
66608;DHT22;53462;39.616;8.824;2023-10-13T10:35:26;34.10;23.20
66608;DHT22;53462;39.616;8.824;2023-10-13T10:38:15;34.30;24.30
66608;DHT22;53462;39.616;8.824;2023-10-13T10:41:03;35.20;23.10
66608;DHT22;53462;39.616;8.824;2023-10-13T10:43:35;35.20;23.50
66608;DHT22;53462;39.616;8.824;2023-10-13T10:48:52;35.10;23.70
66608;DHT22;53462;39.616;8.824;2023-10-13T10:51:27;34.80;22.80
66608;DHT22;53462;39.616;8.824;2023-10-13T10:54:00;34.70;22.80
66608;DHT22;53462;39.616;8.824;2023-10-13T10:56:38;35.20;24.20
66608;DHT22;53462;39.616;8.824;2023-10-13T10:59:07;35.40;23.50
66608;DHT22;53462;39.616;8.824;2023-10-13T11:01:45;35.30;22.70
66608;DHT22;53462;39.616;8.824;2023-10-13T11:04:17;35.60;22.50
66608;DHT22;53462;39.616;8.824;2023-10-13T11:06:52;35.60;23.00
66608;DHT22;53462;39.616;8.824;2023-10-13T11:11:57;34.80;22.70
66608;DHT22;53462;39.616;8.824;2023-10-13T11:14:44;34.90;22.80
66608;DHT22;53462;39.616;8.824;2023-10-13T11:17:19;35.10;23.10
66608;DHT22;53462;39.616;8.824;2023-10-13T11:19:50;35.20;23.10
66608;DHT22;53462;39.616;8.824;2023-10-13T11:25:06;35.30;22.60
66608;DHT22;53462;39.616;8.824;2023-10-13T11:27:41;35.40;22.50
66608;DHT22;53462;39.616;8.824;2023-10-13T11:30:22;35.50;22.90
66608;DHT22;53462;39.616;8.824;2023-10-13T11:35:24;35.10;23.60
66608;DHT22;53462;39.616;8.824;2023-10-13T11:37:51;35.30;22.80
66608;DHT22;53462;39.616;8.824;2023-10-13T11:40:37;35.20;23.80
66608;DHT22;53462;39.616;8.824;2023-10-13T11:43:12;35.50;23.40
66608;DHT22;53462;39.616;8.824;2023-10-13T11:45:41;35.60;23.70
66608;DHT22;53462;39.616;8.824;2023-10-13T11:48:44;35.50;23.50
66608;DHT22;53462;39.616;8.824;2023-10-13T11:51:13;35.70;23.20
66608;DHT22;53462;39.616;8.824;2023-10-13T11:54:05;35.60;22.90
66608;DHT22;53462;39.616;8.824;2023-10-13T11:56:32;35.50;23.40
66608;DHT22;53462;39.616;8.824;2023-10-13T11:58:57;35.50;23.10
66608;DHT22;53462;39.616;8.824;2023-10-13T12:01:27;34.90;23.00
66608;DHT22;53462;39.616;8.824;2023-10-13T12:04:12;35.20;23.40
66608;DHT22;53462;39.616;8.824;2023-10-13T12:06:57;35.50;23.20
66608;DHT22;53462;39.616;8.824;2023-10-13T12:09:50;35.80;23.00
66608;DHT22;53462;39.616;8.824;2023-10-13T12:12:26;35.90;23.10
66608;DHT22;53462;39.616;8.824;2023-10-13T12:14:53;35.90;23.30
66608;DHT22;53462;39.616;8.824;2023-10-13T12:17:27;35.40;22.30
66608;DHT22;53462;39.616;8.824;2023-10-13T12:19:57;35.60;23.30
66608;DHT22;53462;39.616;8.824;2023-10-13T12:22:24;35.80;22.40
66608;DHT22;53462;39.616;8.824;2023-10-13T12:24:55;35.60;23.00
66608;DHT22;53462;39.616;8.824;2023-10-13T12:27:21;35.20;22.80
66608;DHT22;53462;39.616;8.824;2023-10-13T12:30:01;35.40;22.70
66608;DHT22;53462;39.616;8.824;2023-10-13T12:32:35;35.10;23.60
66608;DHT22;53462;39.616;8.824;2023-10-13T12:35:01;35.70;22.90
66608;DHT22;53462;39.616;8.824;2023-10-13T12:37:29;35.80;22.60
66608;DHT22;53462;39.616;8.824;2023-10-13T12:40:17;35.60;24.10
66608;DHT22;53462;39.616;8.824;2023-10-13T12:43:02;35.80;23.20
66608;DHT22;53462;39.616;8.824;2023-10-13T12:45:47;35.80;22.70
66608;DHT22;53462;39.616;8.824;2023-10-13T12:48:33;35.80;23.20
66608;DHT22;53462;39.616;8.824;2023-10-13T12:51:18;35.90;23.20
66608;DHT22;53462;39.616;8.824;2023-10-13T12:53:54;35.70;23.30
66608;DHT22;53462;39.616;8.824;2023-10-13T12:56:21;35.50;23.60
66608;DHT22;53462;39.616;8.824;2023-10-13T12:58:54;35.60;23.60
66608;DHT22;53462;39.616;8.824;2023-10-13T13:01:26;35.30;22.80
66608;DHT22;53462;39.616;8.824;2023-10-13T13:04:08;34.50;23.80
66608;DHT22;53462;39.616;8.824;2023-10-13T13:06:39;34.60;23.40
66608;DHT22;53462;39.616;8.824;2023-10-13T13:09:05;35.40;24.20
66608;DHT22;53462;39.616;8.824;2023-10-13T13:11:35;35.80;23.50
66608;DHT22;53462;39.616;8.824;2023-10-13T13:14:06;35.50;23.30
66608;DHT22;53462;39.616;8.824;2023-10-13T13:16:36;35.60;23.70
66608;DHT22;53462;39.616;8.824;2023-10-13T13:19:05;35.70;24.30
66608;DHT22;53462;39.616;8.824;2023-10-13T13:21:37;35.70;23.80
66608;DHT22;53462;39.616;8.824;2023-10-13T13:24:03;35.10;24.00
66608;DHT22;53462;39.616;8.824;2023-10-13T13:26:31;34.90;23.60
66608;DHT22;53462;39.616;8.824;2023-10-13T13:28:57;35.40;23.40
66608;DHT22;53462;39.616;8.824;2023-10-13T13:31:23;35.20;23.30
66608;DHT22;53462;39.616;8.824;2023-10-13T13:33:55;35.20;23.80
66608;DHT22;53462;39.616;8.824;2023-10-13T13:36:21;35.50;24.00
66608;DHT22;53462;39.616;8.824;2023-10-13T13:38:48;35.40;24.00
66608;DHT22;53462;39.616;8.824;2023-10-13T13:41:20;35.30;24.10
66608;DHT22;53462;39.616;8.824;2023-10-13T13:43:48;35.20;23.60
66608;DHT22;53462;39.616;8.824;2023-10-13T13:46:26;35.20;23.90
66608;DHT22;53462;39.616;8.824;2023-10-13T13:48:59;35.00;24.20
66608;DHT22;53462;39.616;8.824;2023-10-13T13:51:29;34.80;24.60
66608;DHT22;53462;39.616;8.824;2023-10-13T13:53:58;34.80;24.20
66608;DHT22;53462;39.616;8.824;2023-10-13T13:56:24;34.50;23.80
66608;DHT22;53462;39.616;8.824;2023-10-13T13:58:54;34.50;24.20
66608;DHT22;53462;39.616;8.824;2023-10-13T14:01:24;34.40;24.80
66608;DHT22;53462;39.616;8.824;2023-10-13T14:03:54;34.40;24.10
66608;DHT22;53462;39.616;8.824;2023-10-13T14:06:23;34.50;24.40
66608;DHT22;53462;39.616;8.824;2023-10-13T14:08:52;34.20;23.60
66608;DHT22;53462;39.616;8.824;2023-10-13T14:11:21;34.00;24.50
66608;DHT22;53462;39.616;8.824;2023-10-13T14:14:15;33.90;24.90
66608;DHT22;53462;39.616;8.824;2023-10-13T14:16:50;33.90;24.60
66608;DHT22;53462;39.616;8.824;2023-10-13T14:19:16;33.90;24.80
66608;DHT22;53462;39.616;8.824;2023-10-13T14:22:05;33.80;25.10
66608;DHT22;53462;39.616;8.824;2023-10-13T14:24:37;33.70;25.20
66608;DHT22;53462;39.616;8.824;2023-10-13T14:27:09;33.60;25.50
66608;DHT22;53462;39.616;8.824;2023-10-13T14:29:41;33.50;25.10
66608;DHT22;53462;39.616;8.824;2023-10-13T14:32:12;33.30;25.90
66608;DHT22;53462;39.616;8.824;2023-10-13T14:34:43;33.30;25.50
66608;DHT22;53462;39.616;8.824;2023-10-13T14:37:09;33.20;25.50
66608;DHT22;53462;39.616;8.824;2023-10-13T14:39:39;33.10;25.60
66608;DHT22;53462;39.616;8.824;2023-10-13T14:42:05;33.00;25.60
66608;DHT22;53462;39.616;8.824;2023-10-13T14:44:32;32.90;27.00
66608;DHT22;53462;39.616;8.824;2023-10-13T14:46:59;32.70;26.90
66608;DHT22;53462;39.616;8.824;2023-10-13T14:49:25;32.60;26.00
66608;DHT22;53462;39.616;8.824;2023-10-13T14:51:50;32.40;26.60
66608;DHT22;53462;39.616;8.824;2023-10-13T14:54:16;32.30;26.30
66608;DHT22;53462;39.616;8.824;2023-10-13T14:56:42;32.30;26.50
66608;DHT22;53462;39.616;8.824;2023-10-13T14:59:09;32.20;26.70
66608;DHT22;53462;39.616;8.824;2023-10-13T15:01:42;32.10;27.00
66608;DHT22;53462;39.616;8.824;2023-10-13T15:04:09;32.00;27.10
66608;DHT22;53462;39.616;8.824;2023-10-13T15:06:35;31.90;26.30
66608;DHT22;53462;39.616;8.824;2023-10-13T15:09:01;31.90;26.60
66608;DHT22;53462;39.616;8.824;2023-10-13T15:11:27;31.80;26.70
66608;DHT22;53462;39.616;8.824;2023-10-13T15:14:02;31.70;26.80
66608;DHT22;53462;39.616;8.824;2023-10-13T15:16:29;31.60;27.10
66608;DHT22;53462;39.616;8.824;2023-10-13T15:18:55;31.60;26.90
66608;DHT22;53462;39.616;8.824;2023-10-13T15:21:28;31.40;27.50
66608;DHT22;53462;39.616;8.824;2023-10-13T15:24:04;31.30;27.30
66608;DHT22;53462;39.616;8.824;2023-10-13T15:26:45;31.30;27.90
66608;DHT22;53462;39.616;8.824;2023-10-13T15:29:18;31.30;28.30
66608;DHT22;53462;39.616;8.824;2023-10-13T15:31:51;31.20;27.70
66608;DHT22;53462;39.616;8.824;2023-10-13T15:34:27;31.00;27.90
66608;DHT22;53462;39.616;8.824;2023-10-13T15:36:54;30.80;28.20
66608;DHT22;53462;39.616;8.824;2023-10-13T15:39:23;30.80;28.10
66608;DHT22;53462;39.616;8.824;2023-10-13T15:41:54;30.70;28.30
66608;DHT22;53462;39.616;8.824;2023-10-13T15:44:24;30.70;28.70
66608;DHT22;53462;39.616;8.824;2023-10-13T15:46:54;30.60;29.90
66608;DHT22;53462;39.616;8.824;2023-10-13T15:49:21;30.40;31.60
66608;DHT22;53462;39.616;8.824;2023-10-13T15:51:48;30.30;32.30
66608;DHT22;53462;39.616;8.824;2023-10-13T15:54:18;30.20;31.40
66608;DHT22;53462;39.616;8.824;2023-10-13T15:56:47;30.10;31.90
66608;DHT22;53462;39.616;8.824;2023-10-13T15:59:14;30.00;31.90
66608;DHT22;53462;39.616;8.824;2023-10-13T16:01:40;29.80;31.30
66608;DHT22;53462;39.616;8.824;2023-10-13T16:04:07;29.70;31.70
66608;DHT22;53462;39.616;8.824;2023-10-13T16:06:40;29.60;31.50
66608;DHT22;53462;39.616;8.824;2023-10-13T16:09:06;29.60;32.50
66608;DHT22;53462;39.616;8.824;2023-10-13T16:11:42;29.50;32.00
66608;DHT22;53462;39.616;8.824;2023-10-13T16:14:09;29.40;31.90
66608;DHT22;53462;39.616;8.824;2023-10-13T16:16:36;29.30;32.50
66608;DHT22;53462;39.616;8.824;2023-10-13T16:19:03;29.20;32.20
66608;DHT22;53462;39.616;8.824;2023-10-13T16:21:30;29.10;32.30
66608;DHT22;53462;39.616;8.824;2023-10-13T16:23:59;29.00;32.70
66608;DHT22;53462;39.616;8.824;2023-10-13T16:26:25;28.90;31.50
66608;DHT22;53462;39.616;8.824;2023-10-13T16:28:52;28.90;32.10
66608;DHT22;53462;39.616;8.824;2023-10-13T16:31:24;28.60;33.30
66608;DHT22;53462;39.616;8.824;2023-10-13T16:33:54;28.50;32.60
66608;DHT22;53462;39.616;8.824;2023-10-13T16:36:28;28.40;33.30